createdAt,value
2017-04-10T00:00:52.829Z,74.6
2017-04-10T00:01:55.470Z,74.7
2017-04-10T00:02:57.819Z,74.7
2017-04-10T00:04:00.672Z,74.7
2017-04-10T00:05:03.375Z,74.7
2017-04-10T00:06:06.219Z,74.9
2017-04-10T00:07:09.366Z,74.8
2017-04-10T00:09:13.981Z,74.9
2017-04-10T00:11:19.733Z,75.1
2017-04-10T00:13:25.237Z,75.4
2017-04-10T00:14:27.574Z,75.4
2017-04-10T00:15:30.415Z,76
2017-04-10T00:20:44.319Z,76.3
2017-04-10T00:29:05.766Z,77.5
2017-04-10T00:30:08.105Z,77.5
2017-04-10T00:31:10.948Z,77.5
2017-04-10T00:35:21.830Z,77.5
2017-04-10T00:37:27.080Z,77.7
2017-04-10T00:38:29.930Z,77.5
2017-04-10T00:39:32.279Z,77.8
2017-04-10T00:41:38.285Z,77.5
2017-04-10T00:42:40.630Z,77.5
2017-04-10T00:45:48.655Z,77.5
2017-04-10T00:46:51.751Z,77.5
2017-04-10T00:49:59.408Z,77.5
2017-04-10T00:53:07.823Z,77.6
2017-04-10T01:03:34.587Z,77.4
2017-04-10T01:04:36.926Z,77.5
2017-04-10T01:05:39.776Z,77.4
2017-04-10T01:06:42.615Z,77.3
2017-04-10T01:07:44.959Z,77.4
2017-04-10T01:08:48.058Z,77.3
2017-04-10T01:11:56.218Z,77.3
2017-04-10T01:14:01.773Z,77.2
2017-04-10T01:15:04.114Z,77.2
2017-04-10T01:16:06.956Z,77.1
2017-04-10T01:17:09.296Z,77.1
2017-04-10T01:18:12.015Z,77.1
2017-04-10T01:19:14.979Z,77.2
2017-04-10T01:20:17.324Z,77.3
2017-04-10T01:21:20.166Z,77.2
2017-04-10T01:22:23.008Z,77.3
2017-04-10T01:23:25.353Z,77.2
2017-04-10T01:26:33.761Z,77.2
2017-04-10T01:27:36.133Z,77.2
2017-04-10T01:28:38.844Z,77.3
2017-04-10T01:29:41.559Z,77.2
2017-04-10T02:29:15.479Z,78.4
2017-04-10T02:30:17.821Z,78.3
2017-04-10T02:31:20.164Z,78.3
2017-04-10T02:32:23.039Z,78.3
2017-04-10T02:33:25.883Z,78.6
2017-04-10T02:34:28.471Z,78.4
2017-04-10T02:35:31.312Z,78.5
2017-04-10T02:36:33.651Z,78.6
2017-04-10T02:38:38.889Z,78.6
2017-04-10T02:39:41.896Z,78.6
2017-04-10T02:40:44.735Z,78.5
2017-04-10T02:41:47.070Z,78.6
2017-04-10T02:42:49.915Z,78.7
2017-04-10T02:43:52.766Z,78.7
2017-04-10T02:44:55.374Z,78.7
2017-04-10T02:45:57.717Z,78.8
2017-04-10T02:47:00.555Z,78.9
2017-04-10T02:48:03.392Z,78.8
2017-04-10T02:49:05.727Z,78.9
2017-04-10T02:50:08.817Z,78.8
2017-04-10T02:51:11.150Z,78.9
2017-04-10T03:11:02.605Z,78.8
2017-04-10T03:12:04.939Z,79
2017-04-10T03:40:17.648Z,78
2017-04-10T03:52:49.724Z,77.6
2017-04-10T03:53:52.059Z,77.5
2017-04-10T03:54:54.396Z,77.4
2017-04-10T03:55:57.233Z,77.5
2017-04-10T03:57:00.073Z,77.5
2017-04-10T03:58:03.273Z,77.5
2017-04-10T03:59:05.107Z,77.5
2017-04-10T04:00:07.955Z,77.5
2017-04-10T04:01:11.396Z,77.4
2017-04-10T04:02:13.097Z,77.4
2017-04-10T04:03:16.239Z,77.3
2017-04-10T04:04:18.574Z,77.4
2017-04-10T04:05:21.155Z,77.3
2017-04-10T04:06:24.000Z,77.3
2017-04-10T04:07:26.704Z,77.3
2017-04-10T04:09:32.252Z,77.2
2017-04-10T04:10:34.590Z,77.2
2017-04-10T04:11:37.431Z,77.2
2017-04-10T04:12:40.274Z,77.2
2017-04-10T04:13:42.610Z,77.2
2017-04-10T04:14:45.749Z,77.1
2017-04-10T04:15:48.085Z,77.2
2017-04-10T04:16:50.921Z,77.1
2017-04-10T04:17:53.260Z,77
2017-04-10T04:18:56.097Z,77
2017-04-10T04:19:59.186Z,77
2017-04-10T04:21:01.532Z,77
2017-04-10T04:22:04.245Z,77
2017-04-10T04:23:06.588Z,76.9
2017-04-10T04:24:09.977Z,76.9
2017-04-10T04:25:12.617Z,76.9
2017-04-10T04:26:14.501Z,76.8
2017-04-10T04:27:17.884Z,76.7
2017-04-10T04:28:20.093Z,76.6
2017-04-10T04:29:22.939Z,76.5
2017-04-10T04:30:25.526Z,76.4
2017-04-10T04:32:30.630Z,76.2
2017-04-10T04:33:33.467Z,76.3
2017-04-10T04:34:36.306Z,76.2
2017-04-10T04:35:38.893Z,76.2
2017-04-10T04:36:41.790Z,76.2
2017-04-10T04:37:44.129Z,76
2017-04-10T04:38:46.969Z,75.9
2017-04-10T04:39:49.303Z,75.8
2017-04-10T04:40:52.441Z,75.8
2017-04-10T04:41:54.646Z,75.7
2017-04-10T04:42:57.494Z,75.7
2017-04-10T04:44:00.326Z,75.6
2017-04-10T04:45:02.660Z,75.5
2017-04-10T04:46:05.480Z,75.4
2017-04-10T04:47:08.324Z,75.5
2017-04-10T04:48:10.716Z,75.5
2017-04-10T04:49:13.555Z,75.2
2017-04-10T04:50:16.265Z,75.1
2017-04-10T04:51:19.089Z,75.1
2017-04-10T04:52:21.425Z,75
2017-04-10T04:53:24.261Z,74.9
2017-04-10T04:54:26.597Z,74.7
2017-04-10T04:55:29.439Z,74.7
2017-04-10T04:56:32.638Z,74.6
2017-04-10T04:57:34.975Z,74.2
2017-04-10T04:58:37.178Z,74.2
2017-04-10T05:00:42.926Z,73.9
2017-04-10T05:01:46.015Z,73.7
2017-04-10T05:02:48.348Z,73.4
2017-04-10T05:03:50.723Z,73.2
2017-04-10T05:04:53.563Z,73.2
2017-04-10T05:05:56.406Z,72.8
2017-04-10T05:06:59.048Z,73
2017-04-10T05:08:01.386Z,72.7
2017-04-10T05:09:04.224Z,72.4
2017-04-10T05:10:06.931Z,72.1
2017-04-10T05:11:09.634Z,72.2
2017-04-10T05:12:12.578Z,71.8
2017-04-10T05:13:14.970Z,71.6
2017-04-10T05:14:17.808Z,71.7
2017-04-10T05:15:20.139Z,71.4
2017-04-10T05:16:23.147Z,71.1
2017-04-10T05:17:25.649Z,71.1
2017-04-10T05:18:28.491Z,71
2017-04-10T05:19:30.747Z,70.8
2017-04-10T05:20:33.587Z,70.6
2017-04-10T05:21:36.424Z,70.4
2017-04-10T05:22:39.009Z,70.3
2017-04-10T05:23:41.768Z,69.5
2017-04-10T05:24:44.102Z,69.5
2017-04-10T05:25:46.806Z,69.7
2017-04-10T05:26:49.508Z,68.7
2017-04-10T05:27:52.599Z,68.7
2017-04-10T05:28:54.943Z,68.3
2017-04-10T05:31:00.192Z,67.4
2017-04-10T05:32:03.033Z,67.5
2017-04-10T05:33:06.042Z,67.1
2017-04-10T05:34:08.375Z,66.7
2017-04-10T05:35:11.230Z,66.3
2017-04-10T05:36:13.569Z,66.1
2017-04-10T05:37:16.410Z,65
2017-04-10T05:38:19.553Z,64.9
2017-04-10T05:39:21.892Z,64.3
2017-04-10T05:40:24.231Z,63.4
2017-04-10T05:41:27.073Z,63.6
2017-04-10T05:42:29.642Z,62.9
2017-04-10T05:43:32.784Z,62.3
2017-04-10T05:44:35.121Z,62.3
2017-04-10T05:45:37.963Z,61.6
2017-04-10T05:46:40.804Z,61
2017-04-10T05:47:43.141Z,60.9
2017-04-10T05:48:46.279Z,60.7
2017-04-10T05:49:48.612Z,61.1
2017-04-10T05:50:51.497Z,60.7
2017-04-10T05:51:53.833Z,60.6
2017-04-10T05:52:56.675Z,59.2
2017-04-10T05:53:59.817Z,59.8
2017-04-10T05:55:02.151Z,59.3
2017-04-10T05:56:04.496Z,59
2017-04-10T05:57:07.399Z,58.6
2017-04-10T05:58:10.239Z,57.9
2017-04-10T05:59:12.875Z,57.8
2017-04-10T06:00:15.579Z,57.6
2017-04-10T06:01:18.412Z,57.2
2017-04-10T06:02:20.748Z,57.1
2017-04-10T06:03:23.585Z,56.7
2017-04-10T06:04:26.676Z,56.1
2017-04-10T06:05:29.010Z,56.5
2017-04-10T06:06:31.714Z,56.5
2017-04-10T06:07:34.107Z,56.3
2017-04-10T06:08:36.949Z,55.8
2017-04-10T06:09:40.650Z,55.8
2017-04-10T06:10:42.348Z,56.1
2017-04-10T06:11:45.190Z,55.6
2017-04-10T06:12:48.030Z,55.3
2017-04-10T06:13:50.368Z,54.7
2017-04-10T06:14:53.461Z,54.4
2017-04-10T06:15:55.798Z,54.4
2017-04-10T06:16:58.638Z,53.9
2017-04-10T06:18:01.481Z,53.8
2017-04-10T06:18:32.105Z,53.8
2017-04-10T06:19:04.247Z,53.6
2017-04-10T06:20:07.393Z,53.9
2017-04-10T06:21:09.597Z,53.9
2017-04-10T06:22:11.932Z,54
2017-04-10T06:23:14.777Z,53.7
2017-04-10T06:24:17.619Z,52.8
2017-04-10T06:25:20.627Z,51.9
2017-04-10T06:26:22.971Z,52.6
2017-04-10T06:27:25.680Z,51.4
2017-04-10T06:28:28.153Z,51.3
2017-04-10T06:29:30.857Z,51.2
2017-04-10T06:30:33.997Z,51.1
2017-04-10T06:31:36.347Z,50.7
2017-04-10T06:32:39.049Z,50.3
2017-04-10T06:33:41.888Z,50
2017-04-10T06:34:44.730Z,49.5
2017-04-10T06:35:47.821Z,50
2017-04-10T06:36:50.161Z,49.4
2017-04-10T06:37:52.993Z,50
2017-04-10T06:38:55.330Z,49.9
2017-04-10T06:39:58.169Z,50.1
2017-04-10T06:41:01.313Z,50.3
2017-04-10T06:42:03.517Z,49.5
2017-04-10T06:43:06.225Z,49.1
2017-04-10T06:44:09.064Z,49.4
2017-04-10T06:45:11.907Z,49.7
2017-04-10T06:46:15.022Z,48.9
2017-04-10T06:48:19.767Z,49.1
2017-04-10T06:49:22.603Z,48.7
2017-04-10T06:50:25.453Z,48.2
2017-04-10T06:51:29.161Z,47.4
2017-04-10T06:52:31.000Z,48.2
2017-04-10T06:53:33.196Z,47.6
2017-04-10T06:54:37.100Z,47.2
2017-04-10T06:55:38.989Z,47
2017-04-10T06:56:41.913Z,47.3
2017-04-10T06:57:44.617Z,46.5
2017-04-10T06:58:46.953Z,47.1
2017-04-10T06:59:49.788Z,46.6
2017-04-10T07:00:52.626Z,46.7
2017-04-10T07:01:55.766Z,46.3
2017-04-10T07:02:57.960Z,44.9
2017-04-10T07:04:00.670Z,45
2017-04-10T07:05:03.376Z,45.3
2017-04-10T07:06:06.452Z,45.8
2017-04-10T07:07:09.097Z,45.7
2017-04-10T07:08:11.931Z,45.8
2017-04-10T07:09:14.269Z,45.1
2017-04-10T07:10:17.174Z,44.4
2017-04-10T07:11:20.021Z,44.6
2017-04-10T07:12:23.113Z,44.5
2017-04-10T07:13:25.450Z,44.6
2017-04-10T07:14:28.345Z,44.7
2017-04-10T07:15:30.681Z,45
2017-04-10T07:16:34.067Z,43.6
2017-04-10T07:17:36.654Z,44.5
2017-04-10T07:18:38.986Z,43.9
2017-04-10T07:19:41.826Z,44.3
2017-04-10T07:20:44.528Z,44
2017-04-10T07:21:47.366Z,43.7
2017-04-10T07:24:55.829Z,43.3
2017-04-10T07:25:58.166Z,42.9
2017-04-10T07:27:00.875Z,44.1
2017-04-10T07:28:03.717Z,43.3
2017-04-10T07:29:06.559Z,43.6
2017-04-10T07:30:09.701Z,43.2
2017-04-10T07:31:12.043Z,42.7
2017-04-10T07:32:14.814Z,43.1
2017-04-10T07:33:17.651Z,43.2
2017-04-10T07:34:19.990Z,42.9
2017-04-10T07:35:23.055Z,42.5
2017-04-10T07:36:25.759Z,42.2
2017-04-10T07:37:28.597Z,41.6
2017-04-10T07:38:31.432Z,42
2017-04-10T07:39:33.766Z,42
2017-04-10T07:40:36.916Z,42
2017-04-10T07:41:39.120Z,42.1
2017-04-10T07:42:42.467Z,41.4
2017-04-10T07:43:44.809Z,42
2017-04-10T07:44:47.647Z,41.6
2017-04-10T07:45:50.808Z,41.2
2017-04-10T07:46:53.155Z,41.8
2017-04-10T07:47:56.003Z,41.2
2017-04-10T07:50:01.750Z,41.3
2017-04-10T07:51:04.388Z,40.6
2017-04-10T07:52:07.230Z,40.2
2017-04-10T07:53:09.567Z,40.9
2017-04-10T07:54:12.411Z,40.6
2017-04-10T07:55:15.250Z,40.8
2017-04-10T07:56:18.394Z,39.6
2017-04-10T07:57:20.637Z,40.3
2017-04-10T07:58:23.479Z,39.9
2017-04-10T07:59:26.322Z,40.1
2017-04-10T08:00:29.029Z,39.8
2017-04-10T08:01:32.040Z,39.4
2017-04-10T08:03:37.178Z,39.8
2017-04-10T08:04:40.020Z,39.8
2017-04-10T08:05:42.728Z,38.7
2017-04-10T08:06:46.238Z,39.3
2017-04-10T08:07:48.577Z,39.8
2017-04-10T08:08:51.417Z,39.2
2017-04-10T08:10:56.925Z,39.2
2017-04-10T08:12:00.013Z,39.2
2017-04-10T08:13:02.390Z,38.7
2017-04-10T08:14:05.235Z,39.7
2017-04-10T08:15:07.944Z,39.8
2017-04-10T08:16:10.783Z,39.6
2017-04-10T08:17:13.925Z,39.3
2017-04-10T08:19:19.035Z,38.7
2017-04-10T08:20:21.875Z,38.9
2017-04-10T08:21:24.717Z,38.8
2017-04-10T08:22:27.673Z,39.1
2017-04-10T08:23:30.012Z,39.3
2017-04-10T08:24:32.853Z,39.2
2017-04-10T08:25:35.752Z,38.9
2017-04-10T08:26:38.462Z,38.5
2017-04-10T08:27:41.418Z,38.3
2017-04-10T08:29:47.221Z,38.7
2017-04-10T08:30:49.560Z,38.3
2017-04-10T08:31:52.428Z,37.9
2017-04-10T08:32:55.570Z,38.8
2017-04-10T08:33:57.909Z,38.8
2017-04-10T08:35:00.614Z,38.9
2017-04-10T08:36:03.327Z,38.8
2017-04-10T08:37:06.168Z,38.2
2017-04-10T08:38:09.261Z,38.2
2017-04-10T08:39:11.602Z,38.4
2017-04-10T08:41:17.350Z,37.1
2017-04-10T08:42:20.187Z,37.6
2017-04-10T08:43:23.330Z,37.8
2017-04-10T08:44:25.667Z,37.4
2017-04-10T08:45:28.374Z,36.7
2017-04-10T08:46:30.958Z,36.2
2017-04-10T08:47:34.305Z,36.8
2017-04-10T08:48:36.886Z,36.4
2017-04-10T08:49:39.723Z,36.2
2017-04-10T08:50:42.560Z,36
2017-04-10T08:52:47.802Z,36.2
2017-04-10T08:53:50.895Z,36.4
2017-04-10T08:54:53.736Z,36.5
2017-04-10T08:55:56.572Z,35.3
2017-04-10T08:56:59.415Z,36.8
2017-04-10T08:58:01.754Z,36.9
2017-04-10T09:00:07.671Z,35.9
2017-04-10T09:01:10.513Z,36.2
2017-04-10T09:02:13.357Z,36.7
2017-04-10T09:03:16.062Z,36.3
2017-04-10T09:04:18.902Z,36.1
2017-04-10T09:05:21.971Z,35.6
2017-04-10T09:06:24.307Z,36.5
2017-04-10T09:07:27.143Z,35.8
2017-04-10T09:08:29.853Z,35.8
2017-04-10T09:09:32.639Z,36.1
2017-04-10T09:10:35.602Z,36
2017-04-10T09:11:38.447Z,35.8
2017-04-10T09:12:41.288Z,35.9
2017-04-10T09:13:44.121Z,35.9
2017-04-10T09:14:47.005Z,35.8
2017-04-10T09:15:49.593Z,35.6
2017-04-10T09:16:52.432Z,36
2017-04-10T09:17:55.268Z,36.1
2017-04-10T09:18:58.106Z,36
2017-04-10T09:20:00.807Z,36.3
2017-04-10T09:22:06.728Z,36.9
2017-04-10T09:23:09.068Z,36
2017-04-10T09:24:11.916Z,36.2
2017-04-10T09:25:14.756Z,36
2017-04-10T09:26:17.649Z,36.2
2017-04-10T09:27:20.786Z,36.5
2017-04-10T09:28:23.123Z,36.3
2017-04-10T09:29:25.967Z,36.3
2017-04-10T09:30:28.537Z,36.6
2017-04-10T09:31:31.374Z,36.9
2017-04-10T09:32:34.476Z,37
2017-04-10T09:33:36.821Z,37.2
2017-04-10T09:34:39.658Z,36.5
2017-04-10T09:35:42.502Z,36.9
2017-04-10T09:36:45.346Z,37
2017-04-10T09:37:48.485Z,37.1
2017-04-10T09:38:51.194Z,37.3
2017-04-10T09:39:54.035Z,37.1
2017-04-10T09:40:56.741Z,37.2
2017-04-10T09:41:59.516Z,37.6
2017-04-10T09:43:02.474Z,37.6
2017-04-10T09:44:05.181Z,38
2017-04-10T09:45:07.888Z,37.6
2017-04-10T09:46:10.596Z,37.4
2017-04-10T09:47:13.434Z,37.7
2017-04-10T09:48:16.531Z,37.9
2017-04-10T09:49:19.240Z,38.3
2017-04-10T09:50:21.949Z,38.2
2017-04-10T09:51:24.787Z,38.4
2017-04-10T09:52:27.627Z,38.5
2017-04-10T09:53:30.766Z,38
2017-04-10T09:54:32.974Z,38.4
2017-04-10T09:55:35.913Z,38.6
2017-04-10T09:56:38.752Z,38.6
2017-04-10T09:57:41.462Z,38.7
2017-04-10T09:58:44.417Z,38.8
2017-04-10T09:59:46.995Z,38.8
2017-04-10T10:00:49.832Z,39.2
2017-04-10T10:01:52.679Z,39.3
2017-04-10T10:02:56.079Z,39.2
2017-04-10T10:03:58.666Z,38.9
2017-04-10T10:05:01.001Z,39.7
2017-04-10T10:06:03.704Z,39.4
2017-04-10T10:07:06.612Z,39.5
2017-04-10T10:08:09.332Z,39.3
2017-04-10T10:09:12.430Z,39.4
2017-04-10T10:10:15.136Z,39.8
2017-04-10T10:11:17.979Z,39.6
2017-04-10T10:12:20.828Z,38.9
2017-04-10T10:13:23.667Z,39.1
2017-04-10T10:14:26.311Z,39.1
2017-04-10T10:15:29.021Z,39.2
2017-04-10T10:16:31.866Z,38.9
2017-04-10T10:17:35.182Z,39.1
2017-04-10T10:18:37.533Z,39.3
2017-04-10T10:19:40.634Z,39.6
2017-04-10T10:20:43.033Z,39.7
2017-04-10T10:21:45.866Z,39.2
2017-04-10T10:22:48.706Z,40
2017-04-10T10:23:51.549Z,39.8
2017-04-10T10:24:54.507Z,39.2
2017-04-10T10:25:57.117Z,38.9
2017-04-10T10:26:59.826Z,38.4
2017-04-10T10:28:02.667Z,37.9
2017-04-10T10:29:05.239Z,36.8
2017-04-10T10:30:08.200Z,36.9
2017-04-10T10:31:10.908Z,37.2
2017-04-10T10:32:13.746Z,37.1
2017-04-10T10:33:16.450Z,37.3
2017-04-10T10:34:19.659Z,37.6
2017-04-10T10:35:22.295Z,37.7
2017-04-10T10:36:25.179Z,37.7
2017-04-10T10:37:28.022Z,38.2
2017-04-10T10:39:33.263Z,37.9
2017-04-10T10:40:36.354Z,38.3
2017-04-10T10:41:39.069Z,38.2
2017-04-10T10:42:41.775Z,38.1
2017-04-10T10:43:44.611Z,38.6
2017-04-10T10:44:47.315Z,38.2
2017-04-10T10:45:50.454Z,38.5
2017-04-10T10:46:53.156Z,38.4
2017-04-10T10:47:55.995Z,38.4
2017-04-10T10:48:58.834Z,38
2017-04-10T10:50:01.676Z,38.6
2017-04-10T10:51:04.769Z,38.2
2017-04-10T10:52:06.976Z,38
2017-04-10T10:53:09.677Z,37.9
2017-04-10T10:54:12.514Z,38.4
2017-04-10T10:55:15.352Z,38.2
2017-04-10T10:58:24.355Z,37.6
2017-04-10T10:59:26.693Z,37.8
2017-04-10T11:00:29.527Z,37.9
2017-04-10T11:01:32.242Z,37.9
2017-04-10T11:02:34.947Z,37.9
2017-04-10T11:04:40.941Z,38.1
2017-04-10T11:05:43.783Z,37.8
2017-04-10T11:06:46.120Z,37.8
2017-04-10T11:07:48.961Z,38
2017-04-10T11:08:51.799Z,37.8
2017-04-10T11:09:54.894Z,38.3
2017-04-10T11:10:57.600Z,38.7
2017-04-10T11:12:00.497Z,38.3
2017-04-10T11:13:03.203Z,38.3
2017-04-10T11:14:05.905Z,38.3
2017-04-10T11:15:09.227Z,38.3
2017-04-10T11:16:11.426Z,38.3
2017-04-10T11:17:14.632Z,38.1
2017-04-10T11:19:19.873Z,38.1
2017-04-10T11:20:23.011Z,38.1
2017-04-10T11:21:25.852Z,37.5
2017-04-10T11:22:28.557Z,37.8
2017-04-10T11:23:31.263Z,38.1
2017-04-10T11:24:33.967Z,38
2017-04-10T11:25:36.926Z,37.9
2017-04-10T11:26:39.770Z,37.8
2017-04-10T11:27:42.610Z,37.8
2017-04-10T11:28:45.443Z,37.4
2017-04-10T11:29:48.276Z,38
2017-04-10T11:30:51.365Z,37.9
2017-04-10T11:31:53.703Z,37.4
2017-04-10T11:32:56.912Z,37.9
2017-04-10T11:33:59.116Z,37.7
2017-04-10T11:35:02.464Z,37.5
2017-04-10T11:36:05.473Z,37.8
2017-04-10T11:37:07.674Z,37.7
2017-04-10T11:38:10.748Z,37.8
2017-04-10T11:39:13.821Z,37.7
2017-04-10T11:40:16.157Z,37.3
2017-04-10T11:41:19.294Z,37.8
2017-04-10T11:43:25.040Z,38.1
2017-04-10T11:44:27.746Z,37.8
2017-04-10T11:45:30.584Z,38.3
2017-04-10T11:46:33.680Z,38.1
2017-04-10T11:47:36.020Z,38
2017-04-10T11:48:38.857Z,37.3
2017-04-10T11:49:41.696Z,37.7
2017-04-10T11:50:44.536Z,37.3
2017-04-10T11:51:47.628Z,37.5
2017-04-10T11:52:50.467Z,36.9
2017-04-10T11:53:53.305Z,37.1
2017-04-10T11:54:56.144Z,36.5
2017-04-10T11:55:58.994Z,37.3
2017-04-10T11:57:02.084Z,37.5
2017-04-10T11:58:04.287Z,37.9
2017-04-10T11:59:06.992Z,37.4
2017-04-10T12:00:10.266Z,37.6
2017-04-10T12:01:13.107Z,38
2017-04-10T12:02:16.060Z,38.1
2017-04-10T12:03:18.392Z,38.5
2017-04-10T12:04:21.792Z,38.6
2017-04-10T12:05:24.164Z,38.5
2017-04-10T12:06:27.549Z,38.8
2017-04-10T12:07:30.007Z,39.5
2017-04-10T12:08:32.918Z,40.3
2017-04-10T12:09:35.755Z,40.4
2017-04-10T12:10:38.597Z,40.9
2017-04-10T12:11:40.979Z,41
2017-04-10T12:12:44.073Z,41.6
2017-04-10T12:13:46.913Z,42
2017-04-10T12:14:49.752Z,42.7
2017-04-10T12:15:52.593Z,42.7
2017-04-10T12:16:55.995Z,43.2
2017-04-10T12:17:58.585Z,43.1
2017-04-10T12:19:00.920Z,43.7
2017-04-10T12:20:03.756Z,43.5
2017-04-10T12:21:06.457Z,43.6
2017-04-10T12:22:09.356Z,43.9
2017-04-10T12:23:12.448Z,44
2017-04-10T12:24:15.149Z,44
2017-04-10T12:25:17.988Z,44.3
2017-04-10T12:26:20.696Z,44.4
2017-04-10T12:27:23.901Z,44.7
2017-04-10T12:28:27.038Z,45.5
2017-04-10T12:29:29.374Z,45.5
2017-04-10T12:30:32.213Z,45.4
2017-04-10T12:31:35.052Z,46.1
2017-04-10T12:32:37.895Z,46
2017-04-10T12:33:41.034Z,45.7
2017-04-10T12:34:43.412Z,45.8
2017-04-10T12:36:49.396Z,46.5
2017-04-10T12:37:52.102Z,46.7
2017-04-10T12:38:54.977Z,47
2017-04-10T12:39:57.682Z,46.7
2017-04-10T12:41:00.383Z,46.9
2017-04-10T12:42:03.595Z,46.8
2017-04-10T12:43:06.451Z,46.7
2017-04-10T12:44:09.408Z,46.7
2017-04-10T12:45:11.741Z,46.5
2017-04-10T12:46:14.816Z,46.4
2017-04-10T12:47:17.525Z,46.9
2017-04-10T12:48:20.297Z,46.3
2017-04-10T12:49:23.542Z,47.1
2017-04-10T12:50:25.743Z,47
2017-04-10T12:51:29.086Z,47.3
2017-04-10T12:52:31.929Z,47.3
2017-04-10T12:53:34.769Z,47.5
2017-04-10T12:54:37.406Z,47.9
2017-04-10T12:55:40.245Z,48
2017-04-10T12:56:43.081Z,48.4
2017-04-10T12:57:45.921Z,48.4
2017-04-10T12:58:48.759Z,48.5
2017-04-10T12:59:51.854Z,48.2
2017-04-10T13:00:54.194Z,48
2017-04-10T13:01:57.033Z,48.4
2017-04-10T13:02:59.750Z,48.1
2017-04-10T13:04:02.584Z,48
2017-04-10T13:05:05.678Z,48.2
2017-04-10T13:06:08.521Z,48
2017-04-10T13:07:11.235Z,48
2017-04-10T13:08:13.938Z,47.8
2017-04-10T13:09:16.792Z,48.2
2017-04-10T13:10:19.813Z,48.6
2017-04-10T13:11:22.651Z,49.1
2017-04-10T13:12:25.355Z,49.4
2017-04-10T13:13:28.194Z,49.4
2017-04-10T13:14:30.896Z,49.6
2017-04-10T13:15:34.041Z,49.6
2017-04-10T13:16:36.885Z,49.5
2017-04-10T13:18:41.994Z,50.1
2017-04-10T13:19:45.339Z,49.6
2017-04-10T13:20:48.439Z,49.5
2017-04-10T13:21:50.778Z,49.5
2017-04-10T13:23:56.400Z,49.7
2017-04-10T13:24:59.102Z,49.2
2017-04-10T13:26:02.251Z,49.5
2017-04-10T13:27:05.090Z,49.7
2017-04-10T13:28:07.426Z,49.5
2017-04-10T13:29:10.636Z,49.6
2017-04-10T13:30:13.477Z,49.3
2017-04-10T13:31:16.480Z,49.1
2017-04-10T13:32:18.681Z,49.3
2017-04-10T13:33:21.522Z,49.4
2017-04-10T13:34:24.361Z,49.1
2017-04-10T13:35:27.064Z,49.1
2017-04-10T13:36:30.657Z,49.5
2017-04-10T13:37:32.722Z,49.5
2017-04-10T13:38:35.950Z,50
2017-04-10T13:39:38.789Z,49.8
2017-04-10T13:40:41.495Z,49.8
2017-04-10T13:41:44.632Z,49.5
2017-04-10T13:42:46.830Z,49.6
2017-04-10T13:43:50.035Z,50
2017-04-10T13:44:52.739Z,49.9
2017-04-10T13:45:55.583Z,49.6
2017-04-10T13:46:58.463Z,50.2
2017-04-10T13:48:01.166Z,49.8
2017-04-10T13:49:03.871Z,50.2
2017-04-10T13:50:06.581Z,50.3
2017-04-10T13:51:09.421Z,50.2
2017-04-10T13:52:12.432Z,50.5
2017-04-10T13:53:15.136Z,50.3
2017-04-10T13:54:17.847Z,49.7
2017-04-10T13:55:20.553Z,50.3
2017-04-10T13:56:23.256Z,51.1
2017-04-10T13:57:26.346Z,50.9
2017-04-10T13:58:28.983Z,50.8
2017-04-10T13:59:31.699Z,50.8
2017-04-10T14:00:34.837Z,51
2017-04-10T14:01:37.675Z,51.1
2017-04-10T14:02:40.814Z,50.6
2017-04-10T14:03:43.145Z,50.2
2017-04-10T14:04:45.976Z,50.6
2017-04-10T14:05:48.683Z,50.3
2017-04-10T14:06:51.389Z,50.2
2017-04-10T14:08:57.440Z,50.1
2017-04-10T14:09:59.775Z,50.6
2017-04-10T14:11:02.617Z,51.1
2017-04-10T14:12:05.454Z,51.3
2017-04-10T14:13:08.156Z,51.3
2017-04-10T14:14:11.315Z,50.6
2017-04-10T14:15:14.019Z,50.9
2017-04-10T14:16:16.859Z,50.9
2017-04-10T14:17:19.696Z,51.1
2017-04-10T14:19:25.240Z,51.2
2017-04-10T14:20:28.089Z,51.6
2017-04-10T14:21:30.488Z,51.7
2017-04-10T14:22:33.332Z,51.8
2017-04-10T14:23:36.177Z,52.3
2017-04-10T14:24:39.272Z,52.4
2017-04-10T14:25:41.978Z,52.9
2017-04-10T14:26:44.831Z,53.2
2017-04-10T14:27:47.669Z,53.1
2017-04-10T14:28:50.510Z,53
2017-04-10T14:29:53.100Z,53.2
2017-04-10T14:30:55.942Z,53.6
2017-04-10T14:31:58.790Z,53.7
2017-04-10T14:33:01.500Z,53.6
2017-04-10T14:34:04.346Z,53.3
2017-04-10T14:35:07.488Z,53.3
2017-04-10T14:36:09.828Z,53.2
2017-04-10T14:37:12.550Z,52.4
2017-04-10T14:38:15.260Z,52.2
2017-04-10T14:39:17.974Z,52
2017-04-10T14:40:21.487Z,52.3
2017-04-10T14:41:23.833Z,51.7
2017-04-10T14:42:26.671Z,51.5
2017-04-10T14:43:29.511Z,51.2
2017-04-10T14:44:32.350Z,51.7
2017-04-10T14:46:37.902Z,51.1
2017-04-10T14:47:40.782Z,51.2
2017-04-10T14:48:43.126Z,51.2
2017-04-10T14:49:45.982Z,50.8
2017-04-10T14:50:48.824Z,51.3
2017-04-10T14:51:51.975Z,51.1
2017-04-10T14:52:54.307Z,51.4
2017-04-10T14:53:57.154Z,50.7
2017-04-10T14:54:59.861Z,51.1
2017-04-10T14:56:02.711Z,50.7
2017-04-10T14:57:05.805Z,50.3
2017-04-10T14:58:08.147Z,50
2017-04-10T14:59:10.853Z,49.8
2017-04-10T15:00:14.205Z,50
2017-04-10T15:01:16.548Z,49.7
2017-04-10T15:02:19.644Z,50.2
2017-04-10T15:03:22.489Z,50.3
2017-04-10T15:04:25.337Z,50.4
2017-04-10T15:05:27.680Z,50.1
2017-04-10T15:06:30.522Z,50.2
2017-04-10T15:07:33.664Z,50.3
2017-04-10T15:08:36.005Z,50.3
2017-04-10T15:09:38.841Z,50.3
2017-04-10T15:10:41.556Z,50.2
2017-04-10T15:11:44.499Z,49.7
2017-04-10T15:12:47.638Z,50
2017-04-10T15:13:49.975Z,49.8
2017-04-10T15:14:52.819Z,49.8
2017-04-10T15:15:55.665Z,49.7
2017-04-10T15:16:58.506Z,49.7
2017-04-10T15:18:02.061Z,49.4
2017-04-10T15:20:06.810Z,50.4
2017-04-10T15:21:09.653Z,51.3
2017-04-10T15:22:12.506Z,51.4
2017-04-10T15:23:15.604Z,51.3
2017-04-10T15:24:17.940Z,51.2
2017-04-10T15:25:20.792Z,51.5
2017-04-10T15:26:23.314Z,51.2
2017-04-10T15:27:26.525Z,51.5
2017-04-10T15:28:29.162Z,51.7
2017-04-10T15:29:31.869Z,51.7
2017-04-10T15:30:34.582Z,51.5
2017-04-10T15:31:37.424Z,51.7
2017-04-10T15:32:40.818Z,51.8
2017-04-10T15:33:43.464Z,51.3
2017-04-10T15:34:45.800Z,51.4
2017-04-10T15:35:48.645Z,51.3
2017-04-10T15:36:51.487Z,51.9
2017-04-10T15:37:54.328Z,51.9
2017-04-10T15:38:56.968Z,52
2017-04-10T15:39:59.808Z,52.5
2017-04-10T15:41:02.645Z,52.5
2017-04-10T15:42:05.486Z,52.7
2017-04-10T15:43:07.826Z,53.3
2017-04-10T15:44:10.921Z,53.7
2017-04-10T15:45:13.760Z,54
2017-04-10T15:46:16.100Z,54.2
2017-04-10T15:47:18.947Z,53.9
2017-04-10T15:48:21.787Z,54.3
2017-04-10T15:49:25.111Z,54.1
2017-04-10T15:51:30.359Z,54
2017-04-10T15:52:33.200Z,54.5
2017-04-10T15:53:35.398Z,54.6
2017-04-10T15:54:39.046Z,54.4
2017-04-10T15:55:41.251Z,54.8
2017-04-10T15:56:44.089Z,55
2017-04-10T15:57:46.926Z,55.2
2017-04-10T15:58:49.786Z,55.5
2017-04-10T15:59:52.887Z,55.5
2017-04-10T16:00:55.234Z,55.5
2017-04-10T16:01:58.074Z,55.6
2017-04-10T16:03:00.919Z,55.3
2017-04-10T16:04:03.260Z,55.2
2017-04-10T16:05:06.405Z,55
2017-04-10T16:06:09.245Z,54.8
2017-04-10T16:07:11.583Z,55.1
2017-04-10T16:08:14.490Z,55.2
2017-04-10T16:09:17.327Z,55.3
2017-04-10T16:10:20.428Z,55.4
2017-04-10T16:11:22.826Z,55.5
2017-04-10T16:12:25.668Z,55.3
2017-04-10T16:13:28.504Z,55.2
2017-04-10T16:14:31.344Z,55.1
2017-04-10T16:15:33.940Z,55
2017-04-10T16:16:36.780Z,55.3
2017-04-10T16:17:39.620Z,55.4
2017-04-10T16:18:42.192Z,55.6
2017-04-10T16:19:45.045Z,55.9
2017-04-10T16:20:48.144Z,55.8
2017-04-10T16:21:50.354Z,55.7
2017-04-10T16:22:53.197Z,55.6
2017-04-10T16:23:56.040Z,55.6
2017-04-10T16:24:58.881Z,55.5
2017-04-10T16:26:01.887Z,55.6
2017-04-10T16:27:04.230Z,55.8
2017-04-10T16:28:07.072Z,55.6
2017-04-10T16:29:09.913Z,55.4
2017-04-10T16:30:12.757Z,54.8
2017-04-10T16:31:15.887Z,55
2017-04-10T16:32:18.225Z,54.9
2017-04-10T16:33:20.932Z,55
2017-04-10T16:34:23.773Z,54.8
2017-04-10T16:36:29.324Z,54.1
2017-04-10T16:37:32.167Z,53.7
2017-04-10T16:38:34.880Z,53.9
2017-04-10T16:39:37.777Z,54.1
2017-04-10T16:40:40.115Z,54.2
2017-04-10T16:41:43.259Z,54.4
2017-04-10T16:42:45.594Z,54.3
2017-04-10T16:43:48.436Z,54.3
2017-04-10T16:44:51.275Z,54.5
2017-04-10T16:45:54.115Z,54.4
2017-04-10T16:46:57.261Z,54.3
2017-04-10T16:47:59.596Z,54.3
2017-04-10T16:49:02.306Z,54.3
2017-04-10T16:50:05.149Z,54
2017-04-10T16:51:07.995Z,53.6
2017-04-10T16:52:10.587Z,53.7
2017-04-10T16:54:15.841Z,53.2
2017-04-10T16:55:18.685Z,53.1
2017-04-10T16:56:21.532Z,53.1
2017-04-10T16:57:24.678Z,53.1
2017-04-10T16:58:26.881Z,53.5
2017-04-10T16:59:29.588Z,53.4
2017-04-10T17:00:32.430Z,53.2
2017-04-10T17:02:38.484Z,53
2017-04-10T17:03:40.893Z,53.6
2017-04-10T17:04:43.732Z,53.5
2017-04-10T17:05:46.077Z,53.3
2017-04-10T17:06:48.918Z,53.8
2017-04-10T17:07:52.066Z,53.8
2017-04-10T17:08:54.406Z,53.3
2017-04-10T17:09:57.246Z,53.4
2017-04-10T17:11:00.149Z,53.5
2017-04-10T17:12:02.991Z,53.6